createdAt,value
2023-09-18T00:00:52.687Z,24.91
2023-09-18T00:03:20.241Z,24.88
2023-09-18T00:05:48.097Z,24.83
2023-09-18T00:08:15.360Z,24.01
2023-09-18T00:10:48.056Z,23.75
2023-09-18T00:16:02.352Z,23.47
2023-09-18T00:18:30.171Z,22.85
2023-09-18T00:21:02.787Z,22.58
2023-09-18T00:23:35.936Z,22.80
2023-09-18T00:29:05.094Z,22.19
2023-09-18T00:34:26.458Z,22.33
2023-09-18T00:36:59.316Z,22.32
2023-09-18T00:39:30.024Z,22.23
2023-09-18T00:42:02.959Z,22.27
2023-09-18T00:44:32.737Z,22.59
2023-09-18T00:47:07.108Z,22.57
2023-09-18T00:55:27.178Z,22.23
2023-09-18T00:57:55.452Z,22.19
2023-09-18T01:00:22.656Z,21.86
2023-09-18T01:02:55.347Z,22.07
2023-09-18T01:05:28.018Z,22.79
2023-09-18T01:08:07.785Z,23.33
2023-09-18T01:13:26.567Z,24.47
2023-09-18T01:16:00.164Z,24.74
2023-09-18T01:18:33.087Z,24.59
2023-09-18T01:21:05.926Z,24.33
2023-09-18T01:23:34.629Z,24.40
2023-09-18T01:26:02.423Z,24.58
2023-09-18T01:31:27.091Z,24.21
2023-09-18T01:33:55.118Z,22.96
2023-09-18T01:36:28.135Z,22.67
2023-09-18T01:38:59.188Z,22.55
2023-09-18T01:41:29.124Z,21.75
2023-09-18T01:44:08.307Z,22.47
2023-09-18T01:46:35.672Z,23.30
2023-09-18T01:49:05.319Z,22.37
2023-09-18T01:51:33.613Z,23.01
2023-09-18T01:56:54.691Z,23.34
2023-09-18T01:59:31.364Z,23.63
2023-09-18T02:02:06.110Z,23.99
2023-09-18T02:04:42.627Z,24.03
2023-09-18T02:07:21.206Z,23.73
2023-09-18T02:09:55.067Z,23.97
2023-09-18T02:12:25.051Z,23.98
2023-09-18T02:14:58.869Z,23.99
2023-09-18T02:17:27.112Z,23.29
2023-09-18T02:25:47.190Z,22.64
2023-09-18T02:28:16.883Z,22.68
2023-09-18T02:30:49.691Z,22.84
2023-09-18T02:33:20.430Z,21.88
2023-09-18T02:35:48.338Z,21.64
2023-09-18T02:38:22.733Z,21.76
2023-09-18T02:40:59.798Z,22.11
2023-09-18T02:43:29.722Z,21.84
2023-09-18T02:46:01.359Z,21.38
2023-09-18T02:51:24.835Z,21.47
2023-09-18T02:53:57.707Z,21.69
2023-09-18T02:56:25.647Z,21.87
2023-09-18T02:58:54.704Z,22.29
2023-09-18T03:01:23.565Z,22.36
2023-09-18T03:03:52.317Z,22.17
2023-09-18T03:06:19.862Z,22.79
2023-09-18T03:08:49.650Z,23.23
2023-09-18T03:11:16.903Z,23.40
2023-09-18T03:16:40.942Z,23.22
2023-09-18T03:19:13.610Z,23.78
2023-09-18T03:24:50.975Z,23.15
2023-09-18T03:27:19.857Z,23.14
2023-09-18T03:32:41.581Z,23.48
2023-09-18T03:35:17.550Z,23.24
2023-09-18T03:37:44.742Z,23.12
2023-09-18T03:40:14.794Z,23.06
2023-09-18T03:42:43.051Z,23.25
2023-09-18T03:45:16.056Z,23.92
2023-09-18T03:47:43.353Z,24.56
2023-09-18T03:50:16.256Z,24.00
2023-09-18T03:52:45.858Z,23.73
2023-09-18T03:55:14.521Z,24.46
2023-09-18T03:57:43.378Z,24.75
2023-09-18T04:00:16.025Z,24.91
2023-09-18T04:02:43.024Z,24.98
2023-09-18T04:08:00.832Z,24.54
2023-09-18T04:10:33.708Z,24.88
2023-09-18T04:13:03.295Z,25.05
2023-09-18T04:15:39.155Z,25.10
2023-09-18T04:18:12.045Z,24.65
2023-09-18T04:20:44.535Z,24.51
2023-09-18T04:23:16.052Z,23.98
2023-09-18T04:25:44.911Z,24.00
2023-09-18T04:28:18.516Z,23.95
2023-09-18T04:30:50.473Z,23.13
2023-09-18T04:33:27.154Z,22.72
2023-09-18T04:35:57.605Z,21.97
2023-09-18T04:38:30.528Z,21.83
2023-09-18T04:41:00.891Z,21.46
2023-09-18T04:43:33.627Z,20.95
2023-09-18T04:46:07.286Z,20.55
2023-09-18T04:48:37.601Z,20.32
2023-09-18T04:51:04.808Z,20.08
2023-09-18T04:53:32.060Z,20.31
2023-09-18T04:56:01.981Z,20.61
2023-09-18T04:58:32.251Z,20.80
2023-09-18T05:00:59.540Z,20.82
2023-09-18T05:03:29.209Z,20.65
2023-09-18T05:06:02.712Z,21.02
2023-09-18T05:08:38.749Z,21.31
2023-09-18T05:11:09.482Z,22.46
2023-09-18T05:13:40.673Z,22.64
2023-09-18T05:19:08.173Z,22.26
2023-09-18T05:21:40.887Z,22.31
2023-09-18T05:24:14.711Z,21.94
2023-09-18T06:06:07.474Z,21.09
2023-09-18T06:08:34.111Z,20.93
2023-09-18T06:11:00.796Z,20.57
2023-09-18T06:13:27.413Z,20.85
2023-09-18T06:15:53.889Z,21.03
2023-09-18T06:18:20.497Z,21.28
2023-09-18T06:20:47.180Z,21.52
2023-09-18T06:23:16.564Z,20.88
2023-09-18T06:25:44.097Z,20.18
2023-09-18T06:28:10.936Z,20.01
2023-09-18T06:30:37.747Z,20.29
2023-09-18T06:33:04.494Z,20.25
2023-09-18T06:35:31.167Z,20.39
2023-09-18T06:37:57.734Z,19.96
2023-09-18T06:40:24.609Z,19.86
2023-09-18T06:42:51.207Z,19.79
2023-09-18T06:45:18.125Z,19.89
2023-09-18T06:47:46.597Z,20.63
2023-09-18T06:50:13.605Z,20.70
2023-09-18T06:52:40.697Z,20.46
2023-09-18T06:55:07.262Z,20.98
2023-09-18T06:57:35.236Z,21.33
2023-09-18T07:00:02.127Z,21.37
2023-09-18T07:02:28.816Z,21.55
2023-09-18T07:04:55.346Z,21.66
2023-09-18T07:07:22.227Z,21.22
2023-09-18T07:10:03.604Z,21.25
2023-09-18T07:12:33.255Z,20.70
2023-09-18T07:15:00.172Z,21.09
2023-09-18T07:17:29.475Z,21.32
2023-09-18T07:19:56.098Z,20.96
2023-09-18T07:22:23.053Z,20.24
2023-09-18T07:24:49.945Z,20.06
2023-09-18T07:27:16.812Z,20.37
2023-09-18T07:29:44.556Z,20.51
2023-09-18T07:32:11.272Z,19.81
2023-09-18T07:34:37.904Z,19.65
2023-09-18T07:37:04.490Z,19.78
2023-09-18T07:39:31.372Z,19.62
2023-09-18T07:41:59.330Z,20.21
2023-09-18T07:44:25.912Z,20.50
2023-09-18T07:46:56.631Z,19.51
2023-09-18T07:49:26.860Z,18.74
2023-09-18T07:51:57.117Z,19.13
2023-09-18T07:54:25.866Z,18.87
2023-09-18T07:56:52.945Z,18.74
2023-09-18T07:59:20.473Z,19.56
2023-09-18T08:01:51.428Z,20.12
2023-09-18T08:04:18.138Z,20.45
2023-09-18T08:06:46.956Z,20.52
2023-09-18T08:09:14.187Z,20.63
2023-09-18T08:11:47.660Z,21.01
2023-09-18T08:14:18.062Z,21.01
2023-09-18T08:25:59.060Z,20.84
2023-09-18T08:28:26.963Z,21.09
2023-09-18T08:28:48.324Z,21.05
2023-09-18T08:39:16.910Z,20.47
2023-09-18T08:44:54.894Z,19.74
2023-09-18T08:50:27.062Z,19.57
2023-09-18T08:52:54.246Z,20.22
2023-09-18T08:55:21.453Z,19.45
2023-09-18T08:57:47.950Z,19.13
2023-09-18T09:00:14.778Z,19.54
2023-09-18T09:02:41.955Z,18.57
2023-09-18T09:05:08.705Z,18.57
2023-09-18T09:07:35.661Z,18.53
2023-09-18T09:10:03.190Z,19.14
2023-09-18T09:12:30.017Z,19.30
2023-09-18T09:14:56.595Z,18.61
2023-09-18T09:17:23.220Z,18.40
2023-09-18T09:19:49.870Z,18.17
2023-09-18T09:22:16.567Z,18.07
2023-09-18T09:24:43.963Z,18.22
2023-09-18T09:27:10.842Z,18.05
2023-09-18T09:29:37.591Z,18.11
2023-09-18T09:32:04.143Z,18.37
2023-09-18T09:34:30.670Z,18.30
2023-09-18T09:36:57.210Z,18.28
2023-09-18T09:39:24.067Z,18.23
2023-09-18T09:41:50.672Z,18.23
2023-09-18T09:44:17.236Z,18.93
2023-09-18T09:46:43.943Z,18.77
2023-09-18T09:49:10.849Z,19.10
2023-09-18T09:51:37.357Z,19.16
2023-09-18T09:54:03.840Z,19.11
2023-09-18T09:56:30.419Z,18.70
2023-09-18T09:58:56.906Z,18.60
2023-09-18T10:01:23.807Z,18.37
2023-09-18T10:03:51.094Z,18.52
2023-09-18T10:06:19.081Z,19.27
2023-09-18T10:08:47.834Z,19.52
2023-09-18T10:11:14.728Z,19.49
2023-09-18T10:13:41.407Z,19.63
2023-09-18T10:16:08.015Z,19.30
2023-09-18T10:18:34.764Z,20.02
2023-09-18T10:21:01.408Z,20.31
2023-09-18T10:23:28.203Z,19.93
2023-09-18T10:25:55.026Z,18.98
2023-09-18T10:28:21.874Z,19.11
2023-09-18T10:30:48.488Z,19.31
2023-09-18T10:33:15.122Z,19.32
2023-09-18T10:35:41.891Z,18.92
2023-09-18T10:38:08.831Z,19.91
2023-09-18T10:40:35.762Z,19.80
2023-09-18T10:43:02.445Z,20.50
2023-09-18T10:45:29.060Z,20.96
2023-09-18T10:47:56.148Z,21.26
2023-09-18T10:50:26.884Z,21.48
2023-09-18T10:52:54.789Z,21.18
2023-09-18T10:55:22.139Z,21.48
2023-09-18T11:04:01.771Z,21.31
2023-09-18T11:09:57.096Z,19.66
2023-09-18T11:21:48.482Z,20.13
2023-09-18T11:24:26.849Z,20.31
2023-09-18T11:26:54.301Z,20.81
2023-09-18T11:29:20.993Z,19.48
2023-09-18T11:31:54.279Z,18.48
2023-09-18T11:43:40.007Z,17.54
2023-09-18T11:46:13.223Z,17.31
2023-09-18T12:01:29.928Z,20.02
2023-09-18T12:03:58.817Z,19.35
2023-09-18T12:06:27.543Z,19.37
2023-09-18T12:15:15.810Z,19.60
2023-09-18T12:17:42.569Z,19.36
2023-09-18T12:20:12.444Z,18.90
2023-09-18T12:22:40.860Z,18.88
2023-09-18T12:27:53.484Z,18.34
2023-09-18T12:30:23.678Z,19.25
2023-09-18T12:32:52.242Z,18.68
2023-09-18T12:35:20.028Z,18.36
2023-09-18T12:37:47.563Z,18.81
2023-09-18T12:40:16.129Z,18.91
2023-09-18T12:42:43.593Z,18.58
2023-09-18T12:45:10.784Z,19.07
2023-09-18T12:47:40.768Z,19.20
2023-09-18T12:50:07.561Z,19.72
2023-09-18T12:52:34.539Z,19.79
2023-09-18T12:55:01.166Z,19.55
2023-09-18T12:57:30.605Z,19.93
2023-09-18T12:59:57.422Z,19.65
2023-09-18T13:02:29.938Z,20.26
2023-09-18T13:05:00.584Z,19.42
2023-09-18T13:07:28.487Z,20.00
2023-09-18T13:09:55.563Z,20.01
2023-09-18T13:12:23.226Z,20.78
2023-09-18T13:14:52.234Z,21.14
2023-09-18T13:17:19.200Z,20.67
2023-09-18T13:22:15.642Z,19.47
2023-09-18T13:24:42.622Z,19.39
2023-09-18T13:27:14.682Z,19.44
2023-09-18T13:29:43.318Z,19.39
2023-09-18T13:32:10.515Z,19.76
2023-09-18T13:34:37.453Z,20.28
2023-09-18T13:37:04.567Z,20.11
2023-09-18T13:39:31.454Z,20.12
2023-09-18T13:41:59.242Z,20.82
2023-09-18T13:44:26.470Z,21.07
2023-09-18T13:46:56.288Z,20.83
2023-09-18T13:49:28.529Z,21.13
2023-09-18T13:58:28.892Z,21.38
2023-09-18T14:00:55.701Z,21.91
2023-09-18T14:03:22.544Z,22.16
2023-09-18T14:05:49.433Z,22.30
2023-09-18T14:08:16.613Z,22.51
2023-09-18T14:10:45.427Z,21.82
2023-09-18T14:13:14.507Z,20.77
2023-09-18T14:15:44.062Z,20.86
2023-09-18T14:18:11.803Z,21.44
2023-09-18T14:20:38.675Z,20.98
2023-09-18T14:23:07.196Z,21.74
2023-09-18T14:25:34.269Z,21.85
2023-09-18T14:28:03.475Z,22.21
2023-09-18T14:30:30.336Z,22.51
2023-09-18T14:32:57.258Z,22.64
2023-09-18T14:35:27.185Z,22.33
2023-09-18T14:37:56.316Z,21.20
2023-09-18T14:40:24.121Z,21.14
2023-09-18T14:42:51.759Z,21.46
2023-09-18T14:45:18.907Z,21.31
2023-09-18T14:47:45.902Z,20.75
2023-09-18T14:50:12.596Z,20.70
2023-09-18T14:55:54.602Z,20.40
2023-09-18T14:58:22.943Z,21.46
2023-09-18T15:00:49.630Z,22.38
2023-09-18T15:03:16.445Z,22.08
2023-09-18T15:05:43.900Z,22.16
2023-09-18T15:08:11.930Z,22.70
2023-09-18T15:10:43.484Z,22.19
2023-09-18T15:13:14.501Z,22.64
2023-09-18T15:15:43.264Z,22.96
2023-09-18T15:18:16.406Z,22.71
2023-09-18T15:20:45.548Z,23.06
2023-09-18T15:23:40.926Z,23.20
2023-09-18T15:26:07.807Z,23.61
2023-09-18T15:28:34.584Z,23.84
2023-09-18T15:34:17.750Z,24.52
2023-09-18T15:36:47.864Z,24.41
2023-09-18T15:39:16.911Z,24.20
2023-09-18T15:41:45.368Z,24.35
2023-09-18T15:44:12.084Z,23.91
2023-09-18T15:46:38.999Z,24.08
2023-09-18T15:49:06.110Z,24.03
2023-09-18T15:51:32.771Z,23.26
2023-09-18T15:54:00.113Z,23.63
2023-09-18T15:56:27.634Z,23.31
2023-09-18T15:58:54.996Z,23.84
2023-09-18T16:01:24.616Z,24.25
2023-09-18T16:03:51.647Z,24.35
2023-09-18T16:06:18.432Z,24.28
2023-09-18T16:08:46.070Z,24.33
2023-09-18T16:11:14.044Z,24.46
2023-09-18T16:13:41.044Z,24.19
2023-09-18T17:09:14.045Z,21.68
2023-09-18T17:11:47.891Z,22.17
2023-09-18T17:14:14.822Z,22.21
2023-09-18T17:16:41.997Z,22.38
2023-09-18T17:19:16.033Z,22.66
2023-09-18T17:21:44.984Z,22.32
2023-09-18T17:24:11.776Z,22.49
2023-09-18T17:26:39.240Z,22.53
2023-09-18T17:29:08.993Z,22.65
2023-09-18T17:31:36.916Z,22.43
2023-09-18T17:34:04.526Z,22.54
2023-09-18T17:39:08.855Z,21.74
2023-09-18T17:41:36.090Z,21.39
2023-09-18T17:46:48.922Z,21.95
2023-09-18T17:49:16.153Z,22.37
2023-09-18T17:51:47.009Z,22.21
2023-09-18T17:54:13.606Z,21.95
2023-09-18T17:56:40.519Z,22.03
2023-09-18T17:59:09.621Z,21.67
2023-09-18T18:01:36.637Z,21.91
2023-09-18T18:04:03.508Z,22.08
2023-09-18T18:06:30.357Z,21.97
2023-09-18T18:08:59.914Z,22.02
2023-09-18T18:11:26.651Z,22.17
2023-09-18T18:13:55.996Z,21.97
2023-09-18T18:16:22.637Z,21.99
2023-09-18T18:18:49.544Z,22.14
2023-09-18T18:21:16.184Z,21.69
2023-09-18T18:23:46.755Z,21.71
2023-09-18T18:26:13.509Z,22.08
2023-09-18T18:28:40.351Z,21.93
2023-09-18T18:31:08.804Z,21.83
2023-09-18T18:33:35.857Z,21.87
2023-09-18T18:38:49.537Z,22.28
2023-09-18T18:41:17.229Z,22.40
2023-09-18T18:43:44.268Z,22.53
2023-09-18T18:46:11.086Z,22.53
2023-09-18T18:48:39.956Z,22.64
2023-09-18T18:51:08.420Z,22.62
2023-09-18T18:53:35.354Z,22.17
2023-09-18T18:56:09.284Z,22.31
2023-09-18T18:58:36.411Z,22.03
2023-09-18T19:01:03.726Z,22.23
2023-09-18T19:06:02.215Z,22.37
2023-09-18T19:08:35.242Z,22.35
2023-09-18T19:11:04.505Z,22.28
2023-09-18T19:13:32.924Z,22.27
2023-09-18T19:15:59.883Z,22.25
2023-09-18T19:18:27.754Z,22.32
2023-09-18T19:20:54.740Z,22.35
2023-09-18T19:23:21.642Z,22.29
2023-09-18T19:25:48.628Z,22.47
2023-09-18T19:28:17.367Z,22.47
2023-09-18T19:30:50.149Z,22.56
2023-09-18T19:33:24.779Z,22.33
2023-09-18T19:36:09.287Z,22.32
2023-09-18T19:38:36.075Z,22.28
2023-09-18T19:41:03.609Z,22.25
2023-09-18T19:43:32.091Z,22.14
2023-09-18T19:46:01.643Z,21.59
2023-09-18T19:48:29.927Z,21.33
2023-09-18T19:51:09.966Z,21.66
2023-09-18T19:53:42.128Z,21.94
2023-09-18T19:56:09.105Z,22.14
2023-09-18T19:58:37.130Z,21.79
2023-09-18T20:01:09.218Z,22.18
2023-09-18T20:03:37.296Z,22.38
2023-09-18T20:06:13.875Z,22.51
2023-09-18T20:08:41.914Z,22.20
2023-09-18T20:11:18.040Z,22.16
2023-09-18T20:13:50.908Z,22.06
2023-09-18T20:16:26.194Z,22.42
2023-09-18T20:18:59.831Z,22.57
2023-09-18T20:21:32.837Z,21.98
2023-09-18T20:24:03.305Z,22.08
2023-09-18T20:26:33.537Z,22.31
2023-09-18T20:31:56.950Z,22.36
2023-09-18T20:34:24.457Z,22.51
2023-09-18T20:36:55.963Z,22.56
2023-09-18T20:39:43.299Z,22.53
2023-09-18T20:45:40.175Z,21.70
2023-09-18T20:51:32.554Z,21.55
2023-09-18T20:54:18.074Z,21.57
2023-09-18T20:56:50.194Z,21.44
2023-09-18T20:59:17.283Z,21.56
2023-09-18T21:01:44.215Z,21.99
2023-09-18T21:04:14.968Z,21.93
2023-09-18T21:06:41.977Z,21.97
2023-09-18T21:09:16.106Z,21.84
2023-09-18T21:11:51.205Z,22.06
2023-09-18T21:14:23.878Z,22.26
2023-09-18T21:16:54.490Z,22.36
2023-09-18T21:19:23.176Z,22.00
2023-09-18T21:21:50.464Z,22.16
2023-09-18T21:24:23.312Z,22.27
2023-09-18T21:26:50.672Z,22.22
2023-09-18T21:29:23.607Z,21.61
2023-09-18T21:34:26.696Z,21.46
2023-09-18T21:39:37.245Z,21.18
2023-09-18T21:42:13.670Z,20.07
2023-09-18T21:47:37.923Z,20.95
2023-09-18T21:58:44.778Z,20.51
2023-09-18T22:01:20.003Z,20.61
2023-09-18T22:03:47.352Z,21.13
2023-09-18T22:06:17.978Z,20.70
2023-09-18T22:08:47.734Z,20.17
2023-09-18T22:11:19.537Z,20.03
2023-09-18T22:13:48.236Z,19.98
2023-09-18T22:16:15.468Z,20.29
2023-09-18T22:18:45.659Z,20.47
2023-09-18T22:21:13.158Z,21.02
2023-09-18T22:23:43.058Z,21.07
2023-09-18T22:26:11.559Z,21.30
2023-09-18T22:28:39.929Z,21.13
2023-09-18T22:31:11.293Z,21.23
2023-09-18T22:33:41.061Z,21.47
2023-09-18T22:36:20.936Z,21.50
2023-09-18T22:38:57.042Z,21.42
2023-09-18T22:41:27.510Z,21.37
2023-09-18T22:44:00.482Z,21.55
2023-09-18T22:49:17.737Z,21.47
2023-09-18T22:51:49.340Z,19.98
2023-09-18T22:54:23.107Z,20.00
2023-09-18T22:56:56.584Z,20.76
2023-09-18T22:59:26.933Z,20.49
2023-09-18T23:01:59.844Z,20.28
2023-09-18T23:04:27.170Z,20.42
2023-09-18T23:06:59.961Z,20.84
2023-09-18T23:09:26.884Z,20.89
2023-09-18T23:11:55.921Z,20.05
2023-09-18T23:14:23.124Z,20.15
2023-09-18T23:16:58.823Z,20.60
2023-09-18T23:19:30.231Z,21.04
2023-09-18T23:24:54.909Z,21.23
2023-09-18T23:27:23.963Z,20.95
2023-09-18T23:29:50.920Z,21.21
2023-09-18T23:32:19.685Z,21.48
2023-09-18T23:34:47.274Z,21.41
2023-09-18T23:37:20.519Z,21.13
2023-09-18T23:39:54.351Z,20.63
2023-09-18T23:42:22.861Z,20.65
2023-09-18T23:44:50.293Z,20.65
2023-09-18T23:47:18.038Z,20.67
2023-09-18T23:49:51.048Z,20.71
2023-09-18T23:52:18.336Z,20.95
2023-09-18T23:54:52.151Z,20.57
2023-09-18T23:57:20.850Z,20.74
2023-09-18T23:59:50.648Z,21.08
